sensor_id;sensor_type;location;lat;lon;timestamp;temperature;humidity
316;DHT22;14128;48.686;9.738;2022-09-20T00:00:16;7.90;1.40
316;DHT22;14128;48.686;9.738;2022-09-20T00:02:43;7.80;1.40
316;DHT22;14128;48.686;9.738;2022-09-20T00:05:09;7.70;1.40
316;DHT22;14128;48.686;9.738;2022-09-20T00:07:36;7.70;1.40
316;DHT22;14128;48.686;9.738;2022-09-20T00:10:04;7.60;1.40
316;DHT22;14128;48.686;9.738;2022-09-20T00:12:32;7.60;1.40
316;DHT22;14128;48.686;9.738;2022-09-20T00:14:58;7.60;1.40
316;DHT22;14128;48.686;9.738;2022-09-20T00:17:25;7.60;1.40
316;DHT22;14128;48.686;9.738;2022-09-20T00:19:52;7.60;1.40
316;DHT22;14128;48.686;9.738;2022-09-20T00:22:19;7.60;1.40
316;DHT22;14128;48.686;9.738;2022-09-20T00:24:45;7.70;1.40
316;DHT22;14128;48.686;9.738;2022-09-20T00:27:12;7.80;1.40
316;DHT22;14128;48.686;9.738;2022-09-20T00:29:40;7.80;1.40
316;DHT22;14128;48.686;9.738;2022-09-20T00:32:07;7.90;1.40
316;DHT22;14128;48.686;9.738;2022-09-20T00:34:34;7.90;1.40
316;DHT22;14128;48.686;9.738;2022-09-20T00:37:18;7.90;1.40
316;DHT22;14128;48.686;9.738;2022-09-20T00:39:45;7.90;1.40
316;DHT22;14128;48.686;9.738;2022-09-20T00:42:13;8.00;1.40
316;DHT22;14128;48.686;9.738;2022-09-20T00:44:52;8.00;1.40
316;DHT22;14128;48.686;9.738;2022-09-20T00:47:25;8.00;1.40
316;DHT22;14128;48.686;9.738;2022-09-20T00:49:58;8.00;1.40
316;DHT22;14128;48.686;9.738;2022-09-20T00:52:26;7.90;1.40
316;DHT22;14128;48.686;9.738;2022-09-20T00:54:53;7.90;1.40
316;DHT22;14128;48.686;9.738;2022-09-20T00:57:20;7.90;1.40
316;DHT22;14128;48.686;9.738;2022-09-20T00:59:49;7.90;1.40
316;DHT22;14128;48.686;9.738;2022-09-20T01:02:20;7.80;1.40
316;DHT22;14128;48.686;9.738;2022-09-20T01:04:48;7.80;1.40
316;DHT22;14128;48.686;9.738;2022-09-20T01:07:17;7.80;1.40
316;DHT22;14128;48.686;9.738;2022-09-20T01:09:46;7.70;1.40
316;DHT22;14128;48.686;9.738;2022-09-20T01:12:17;7.70;1.40
316;DHT22;14128;48.686;9.738;2022-09-20T01:14:45;7.70;1.40
316;DHT22;14128;48.686;9.738;2022-09-20T01:17:15;7.70;1.40
316;DHT22;14128;48.686;9.738;2022-09-20T01:19:48;7.70;1.40
316;DHT22;14128;48.686;9.738;2022-09-20T01:22:22;7.70;1.40
316;DHT22;14128;48.686;9.738;2022-09-20T01:24:55;7.70;1.40
316;DHT22;14128;48.686;9.738;2022-09-20T01:27:37;7.70;1.40
316;DHT22;14128;48.686;9.738;2022-09-20T01:30:06;7.70;1.40
316;DHT22;14128;48.686;9.738;2022-09-20T01:32:43;7.60;1.40
316;DHT22;14128;48.686;9.738;2022-09-20T01:35:11;7.60;1.40
316;DHT22;14128;48.686;9.738;2022-09-20T01:37:47;7.70;1.40
316;DHT22;14128;48.686;9.738;2022-09-20T01:40:19;7.60;1.40
316;DHT22;14128;48.686;9.738;2022-09-20T01:42:57;7.70;1.40
316;DHT22;14128;48.686;9.738;2022-09-20T01:45:27;7.70;1.40
316;DHT22;14128;48.686;9.738;2022-09-20T01:48:03;7.60;1.40
316;DHT22;14128;48.686;9.738;2022-09-20T01:50:36;7.60;1.40
316;DHT22;14128;48.686;9.738;2022-09-20T01:53:30;7.60;1.40
316;DHT22;14128;48.686;9.738;2022-09-20T02:02:40;7.60;1.40
316;DHT22;14128;48.686;9.738;2022-09-20T02:05:39;7.60;1.40
316;DHT22;14128;48.686;9.738;2022-09-20T02:08:33;7.70;1.40
316;DHT22;14128;48.686;9.738;2022-09-20T02:11:13;7.70;1.40
316;DHT22;14128;48.686;9.738;2022-09-20T02:13:57;7.70;1.40
316;DHT22;14128;48.686;9.738;2022-09-20T02:16:53;7.70;1.40
316;DHT22;14128;48.686;9.738;2022-09-20T02:19:35;7.70;1.40
316;DHT22;14128;48.686;9.738;2022-09-20T02:22:17;7.70;1.40
316;DHT22;14128;48.686;9.738;2022-09-20T02:24:52;7.70;1.40
316;DHT22;14128;48.686;9.738;2022-09-20T02:27:24;7.70;1.40
316;DHT22;14128;48.686;9.738;2022-09-20T02:30:03;7.70;1.40
316;DHT22;14128;48.686;9.738;2022-09-20T02:32:45;7.70;1.40
316;DHT22;14128;48.686;9.738;2022-09-20T02:35:45;7.70;1.40
316;DHT22;14128;48.686;9.738;2022-09-20T02:38:28;7.60;1.40
316;DHT22;14128;48.686;9.738;2022-09-20T02:41:29;7.60;1.40
316;DHT22;14128;48.686;9.738;2022-09-20T02:44:02;7.60;1.40
316;DHT22;14128;48.686;9.738;2022-09-20T02:46:32;7.60;1.40
316;DHT22;14128;48.686;9.738;2022-09-20T02:49:09;7.60;1.40
316;DHT22;14128;48.686;9.738;2022-09-20T02:51:40;7.60;1.40
316;DHT22;14128;48.686;9.738;2022-09-20T02:54:16;7.60;1.40
316;DHT22;14128;48.686;9.738;2022-09-20T02:56:49;7.60;1.40
316;DHT22;14128;48.686;9.738;2022-09-20T02:59:25;7.70;1.40
316;DHT22;14128;48.686;9.738;2022-09-20T03:02:03;7.70;1.40
316;DHT22;14128;48.686;9.738;2022-09-20T03:04:44;7.70;1.40
316;DHT22;14128;48.686;9.738;2022-09-20T03:07:20;7.80;1.40
316;DHT22;14128;48.686;9.738;2022-09-20T03:09:55;7.80;1.40
316;DHT22;14128;48.686;9.738;2022-09-20T03:12:32;7.90;1.40
316;DHT22;14128;48.686;9.738;2022-09-20T03:15:10;7.90;1.40
316;DHT22;14128;48.686;9.738;2022-09-20T03:17:46;7.90;1.40
316;DHT22;14128;48.686;9.738;2022-09-20T03:20:26;7.90;1.40
316;DHT22;14128;48.686;9.738;2022-09-20T03:23:00;7.90;1.40
316;DHT22;14128;48.686;9.738;2022-09-20T03:25:49;7.90;1.40
316;DHT22;14128;48.686;9.738;2022-09-20T03:28:47;7.80;1.40
316;DHT22;14128;48.686;9.738;2022-09-20T03:31:26;7.80;1.40
316;DHT22;14128;48.686;9.738;2022-09-20T03:34:04;7.80;1.40
316;DHT22;14128;48.686;9.738;2022-09-20T03:36:48;7.80;1.40
316;DHT22;14128;48.686;9.738;2022-09-20T03:39:38;7.80;1.40
316;DHT22;14128;48.686;9.738;2022-09-20T03:42:14;7.90;1.40
316;DHT22;14128;48.686;9.738;2022-09-20T03:47:44;7.90;1.40
316;DHT22;14128;48.686;9.738;2022-09-20T03:50:32;7.90;1.40
316;DHT22;14128;48.686;9.738;2022-09-20T03:53:29;7.90;1.40
316;DHT22;14128;48.686;9.738;2022-09-20T03:56:19;7.90;1.40
316;DHT22;14128;48.686;9.738;2022-09-20T03:59:01;7.90;1.40
316;DHT22;14128;48.686;9.738;2022-09-20T04:01:51;7.90;1.40
316;DHT22;14128;48.686;9.738;2022-09-20T04:04:24;8.00;1.40
316;DHT22;14128;48.686;9.738;2022-09-20T04:07:09;8.00;1.40
316;DHT22;14128;48.686;9.738;2022-09-20T04:10:05;8.00;1.40
316;DHT22;14128;48.686;9.738;2022-09-20T04:12:44;8.00;1.40
316;DHT22;14128;48.686;9.738;2022-09-20T04:15:24;8.00;1.40
316;DHT22;14128;48.686;9.738;2022-09-20T04:17:59;8.00;1.40
316;DHT22;14128;48.686;9.738;2022-09-20T04:20:31;8.00;1.40
316;DHT22;14128;48.686;9.738;2022-09-20T04:23:06;8.00;1.40
316;DHT22;14128;48.686;9.738;2022-09-20T04:25:40;8.10;1.40
316;DHT22;14128;48.686;9.738;2022-09-20T04:28:13;8.00;1.40
316;DHT22;14128;48.686;9.738;2022-09-20T04:30:42;8.00;1.40
316;DHT22;14128;48.686;9.738;2022-09-20T04:33:17;8.10;1.40
316;DHT22;14128;48.686;9.738;2022-09-20T04:35:50;8.00;1.40
316;DHT22;14128;48.686;9.738;2022-09-20T04:38:36;8.10;1.40
316;DHT22;14128;48.686;9.738;2022-09-20T04:41:32;8.10;1.40
316;DHT22;14128;48.686;9.738;2022-09-20T04:44:39;8.10;1.40
316;DHT22;14128;48.686;9.738;2022-09-20T04:57:02;8.20;1.40
316;DHT22;14128;48.686;9.738;2022-09-20T04:59:43;8.20;1.40
316;DHT22;14128;48.686;9.738;2022-09-20T05:02:32;8.30;1.40
316;DHT22;14128;48.686;9.738;2022-09-20T05:05:26;8.30;1.40
316;DHT22;14128;48.686;9.738;2022-09-20T05:11:26;8.30;1.40
316;DHT22;14128;48.686;9.738;2022-09-20T05:14:27;8.30;1.40
316;DHT22;14128;48.686;9.738;2022-09-20T05:17:09;8.30;1.40
316;DHT22;14128;48.686;9.738;2022-09-20T05:19:46;8.30;1.40
316;DHT22;14128;48.686;9.738;2022-09-20T05:23:01;8.30;1.40
316;DHT22;14128;48.686;9.738;2022-09-20T05:25:45;8.20;1.40
316;DHT22;14128;48.686;9.738;2022-09-20T05:28:18;8.30;1.40
316;DHT22;14128;48.686;9.738;2022-09-20T05:30:51;8.20;1.40
316;DHT22;14128;48.686;9.738;2022-09-20T05:33:24;8.30;1.40
316;DHT22;14128;48.686;9.738;2022-09-20T05:36:02;8.30;1.40
316;DHT22;14128;48.686;9.738;2022-09-20T05:38:38;8.30;1.40
316;DHT22;14128;48.686;9.738;2022-09-20T05:41:12;8.40;1.40
316;DHT22;14128;48.686;9.738;2022-09-20T05:43:51;8.30;1.40
316;DHT22;14128;48.686;9.738;2022-09-20T05:46:33;8.30;1.40
316;DHT22;14128;48.686;9.738;2022-09-20T05:49:10;8.30;1.40
316;DHT22;14128;48.686;9.738;2022-09-20T05:51:58;8.40;1.40
316;DHT22;14128;48.686;9.738;2022-09-20T05:55:06;8.50;1.40
316;DHT22;14128;48.686;9.738;2022-09-20T05:57:58;8.60;1.40
316;DHT22;14128;48.686;9.738;2022-09-20T06:00:31;8.60;1.40
316;DHT22;14128;48.686;9.738;2022-09-20T06:03:08;8.60;1.40
316;DHT22;14128;48.686;9.738;2022-09-20T06:05:44;8.60;1.40
316;DHT22;14128;48.686;9.738;2022-09-20T06:08:37;8.60;1.40
316;DHT22;14128;48.686;9.738;2022-09-20T06:14:16;8.60;1.40
316;DHT22;14128;48.686;9.738;2022-09-20T06:16:52;8.70;1.40
316;DHT22;14128;48.686;9.738;2022-09-20T06:19:31;8.70;1.40
316;DHT22;14128;48.686;9.738;2022-09-20T06:22:03;8.80;1.40
316;DHT22;14128;48.686;9.738;2022-09-20T06:24:37;8.80;1.40
316;DHT22;14128;48.686;9.738;2022-09-20T06:27:13;8.80;1.40
316;DHT22;14128;48.686;9.738;2022-09-20T06:29:43;8.90;1.40
316;DHT22;14128;48.686;9.738;2022-09-20T06:32:16;8.90;1.40
316;DHT22;14128;48.686;9.738;2022-09-20T06:34:44;9.10;1.40
316;DHT22;14128;48.686;9.738;2022-09-20T06:37:24;9.10;1.40
316;DHT22;14128;48.686;9.738;2022-09-20T06:40:21;9.00;1.40
316;DHT22;14128;48.686;9.738;2022-09-20T06:43:08;8.90;1.40
316;DHT22;14128;48.686;9.738;2022-09-20T06:45:39;8.90;1.40
316;DHT22;14128;48.686;9.738;2022-09-20T06:48:06;9.00;1.40
316;DHT22;14128;48.686;9.738;2022-09-20T06:50:34;9.00;1.40
316;DHT22;14128;48.686;9.738;2022-09-20T06:53:01;9.00;1.40
316;DHT22;14128;48.686;9.738;2022-09-20T06:55:32;9.00;1.40
316;DHT22;14128;48.686;9.738;2022-09-20T06:58:01;9.10;1.40
316;DHT22;14128;48.686;9.738;2022-09-20T07:00:28;9.20;1.40
316;DHT22;14128;48.686;9.738;2022-09-20T07:02:55;9.50;1.40
316;DHT22;14128;48.686;9.738;2022-09-20T07:05:22;9.70;1.40
316;DHT22;14128;48.686;9.738;2022-09-20T07:07:55;9.80;1.40
316;DHT22;14128;48.686;9.738;2022-09-20T07:10:22;10.00;1.40
316;DHT22;14128;48.686;9.738;2022-09-20T07:12:49;10.00;1.40
316;DHT22;14128;48.686;9.738;2022-09-20T07:15:16;10.00;1.40
316;DHT22;14128;48.686;9.738;2022-09-20T07:17:47;9.90;1.40
316;DHT22;14128;48.686;9.738;2022-09-20T07:20:14;9.70;1.40
316;DHT22;14128;48.686;9.738;2022-09-20T07:22:40;9.80;1.40
316;DHT22;14128;48.686;9.738;2022-09-20T07:25:09;9.80;1.40
316;DHT22;14128;48.686;9.738;2022-09-20T07:27:36;9.80;1.40
316;DHT22;14128;48.686;9.738;2022-09-20T07:30:04;9.60;1.40
316;DHT22;14128;48.686;9.738;2022-09-20T07:32:31;9.70;1.40
316;DHT22;14128;48.686;9.738;2022-09-20T07:34:58;9.90;1.40
316;DHT22;14128;48.686;9.738;2022-09-20T07:37:26;10.20;1.40
316;DHT22;14128;48.686;9.738;2022-09-20T07:39:53;10.40;1.40
316;DHT22;14128;48.686;9.738;2022-09-20T07:42:21;10.50;1.40
316;DHT22;14128;48.686;9.738;2022-09-20T07:44:48;10.80;1.40
316;DHT22;14128;48.686;9.738;2022-09-20T07:47:17;10.70;1.40
316;DHT22;14128;48.686;9.738;2022-09-20T07:49:44;10.70;1.40
316;DHT22;14128;48.686;9.738;2022-09-20T07:52:11;10.80;1.40
316;DHT22;14128;48.686;9.738;2022-09-20T07:54:39;10.60;1.40
316;DHT22;14128;48.686;9.738;2022-09-20T07:57:06;10.70;1.40
316;DHT22;14128;48.686;9.738;2022-09-20T07:59:34;10.60;1.40
316;DHT22;14128;48.686;9.738;2022-09-20T08:02:01;10.50;1.40
316;DHT22;14128;48.686;9.738;2022-09-20T08:04:27;10.50;1.40
316;DHT22;14128;48.686;9.738;2022-09-20T08:06:54;10.70;1.40
316;DHT22;14128;48.686;9.738;2022-09-20T08:09:23;11.00;1.40
316;DHT22;14128;48.686;9.738;2022-09-20T08:11:50;11.40;1.40
316;DHT22;14128;48.686;9.738;2022-09-20T08:14:17;11.50;1.40
316;DHT22;14128;48.686;9.738;2022-09-20T08:16:47;11.60;1.40
316;DHT22;14128;48.686;9.738;2022-09-20T08:19:17;11.90;1.40
316;DHT22;14128;48.686;9.738;2022-09-20T08:21:44;11.60;1.40
316;DHT22;14128;48.686;9.738;2022-09-20T08:24:11;11.50;1.40
316;DHT22;14128;48.686;9.738;2022-09-20T08:26:38;11.50;1.40
316;DHT22;14128;48.686;9.738;2022-09-20T08:29:05;11.20;1.40
316;DHT22;14128;48.686;9.738;2022-09-20T08:31:33;11.20;1.40
316;DHT22;14128;48.686;9.738;2022-09-20T08:34:04;11.00;1.40
316;DHT22;14128;48.686;9.738;2022-09-20T08:36:33;11.10;1.40
316;DHT22;14128;48.686;9.738;2022-09-20T08:39:00;11.40;1.40
316;DHT22;14128;48.686;9.738;2022-09-20T08:41:29;11.60;1.40
316;DHT22;14128;48.686;9.738;2022-09-20T08:43:59;12.10;1.40
316;DHT22;14128;48.686;9.738;2022-09-20T08:46:31;12.60;1.40
316;DHT22;14128;48.686;9.738;2022-09-20T08:49:04;12.80;1.40
316;DHT22;14128;48.686;9.738;2022-09-20T08:51:34;12.80;1.40
316;DHT22;14128;48.686;9.738;2022-09-20T08:54:05;13.30;1.40
316;DHT22;14128;48.686;9.738;2022-09-20T08:56:35;12.90;1.40
316;DHT22;14128;48.686;9.738;2022-09-20T08:59:04;12.70;1.40
316;DHT22;14128;48.686;9.738;2022-09-20T09:01:32;12.60;1.40
316;DHT22;14128;48.686;9.738;2022-09-20T09:04:12;12.00;1.40
316;DHT22;14128;48.686;9.738;2022-09-20T09:06:39;11.10;1.40
316;DHT22;14128;48.686;9.738;2022-09-20T09:09:06;10.80;1.40
316;DHT22;14128;48.686;9.738;2022-09-20T09:11:33;10.60;1.40
316;DHT22;14128;48.686;9.738;2022-09-20T09:14:10;10.70;1.40
316;DHT22;14128;48.686;9.738;2022-09-20T09:16:51;10.90;1.40
316;DHT22;14128;48.686;9.738;2022-09-20T09:19:27;11.20;1.40
316;DHT22;14128;48.686;9.738;2022-09-20T09:21:57;11.40;1.40
316;DHT22;14128;48.686;9.738;2022-09-20T09:24:24;11.30;1.40
316;DHT22;14128;48.686;9.738;2022-09-20T09:27:05;11.80;1.40
316;DHT22;14128;48.686;9.738;2022-09-20T09:29:32;12.20;1.40
316;DHT22;14128;48.686;9.738;2022-09-20T09:32:18;12.40;1.40
316;DHT22;14128;48.686;9.738;2022-09-20T09:34:47;12.70;1.40
316;DHT22;14128;48.686;9.738;2022-09-20T09:37:23;12.80;1.40
316;DHT22;14128;48.686;9.738;2022-09-20T09:40:06;12.50;1.40
316;DHT22;14128;48.686;9.738;2022-09-20T09:42:34;11.90;1.40
316;DHT22;14128;48.686;9.738;2022-09-20T09:45:10;11.50;1.40
316;DHT22;14128;48.686;9.738;2022-09-20T09:47:37;11.50;1.40
316;DHT22;14128;48.686;9.738;2022-09-20T09:50:21;11.80;1.40
316;DHT22;14128;48.686;9.738;2022-09-20T09:52:57;12.00;1.40
316;DHT22;14128;48.686;9.738;2022-09-20T09:55:26;12.10;1.40
316;DHT22;14128;48.686;9.738;2022-09-20T09:57:58;12.20;1.40
316;DHT22;14128;48.686;9.738;2022-09-20T10:00:29;12.30;1.40
316;DHT22;14128;48.686;9.738;2022-09-20T10:03:10;12.20;1.40
316;DHT22;14128;48.686;9.738;2022-09-20T10:05:50;12.50;1.40
316;DHT22;14128;48.686;9.738;2022-09-20T10:08:27;12.50;1.40
316;DHT22;14128;48.686;9.738;2022-09-20T10:11:08;13.10;1.40
316;DHT22;14128;48.686;9.738;2022-09-20T10:13:46;13.90;1.40
316;DHT22;14128;48.686;9.738;2022-09-20T10:16:22;14.40;1.40
316;DHT22;14128;48.686;9.738;2022-09-20T10:19:00;14.00;1.40
316;DHT22;14128;48.686;9.738;2022-09-20T10:21:42;13.80;1.40
316;DHT22;14128;48.686;9.738;2022-09-20T10:24:24;13.60;1.40
316;DHT22;14128;48.686;9.738;2022-09-20T10:27:05;13.70;1.40
316;DHT22;14128;48.686;9.738;2022-09-20T10:29:42;14.00;1.40
316;DHT22;14128;48.686;9.738;2022-09-20T10:32:27;14.70;1.40
316;DHT22;14128;48.686;9.738;2022-09-20T10:35:12;15.20;1.40
316;DHT22;14128;48.686;9.738;2022-09-20T10:37:54;15.60;1.40
316;DHT22;14128;48.686;9.738;2022-09-20T10:40:32;15.30;1.40
316;DHT22;14128;48.686;9.738;2022-09-20T10:43:22;15.00;1.40
316;DHT22;14128;48.686;9.738;2022-09-20T10:46:01;15.00;1.40
316;DHT22;14128;48.686;9.738;2022-09-20T10:48:32;15.00;1.40
316;DHT22;14128;48.686;9.738;2022-09-20T10:51:10;14.90;1.40
316;DHT22;14128;48.686;9.738;2022-09-20T10:53:48;14.40;1.40
316;DHT22;14128;48.686;9.738;2022-09-20T10:56:25;14.30;1.40
316;DHT22;14128;48.686;9.738;2022-09-20T10:59:17;14.80;1.40
316;DHT22;14128;48.686;9.738;2022-09-20T11:01:55;14.50;1.40
316;DHT22;14128;48.686;9.738;2022-09-20T11:04:36;13.90;1.40
316;DHT22;14128;48.686;9.738;2022-09-20T11:07:10;13.50;1.40
316;DHT22;14128;48.686;9.738;2022-09-20T11:09:47;13.90;1.40
316;DHT22;14128;48.686;9.738;2022-09-20T11:12:22;14.10;1.40
316;DHT22;14128;48.686;9.738;2022-09-20T11:14:53;14.10;1.40
316;DHT22;14128;48.686;9.738;2022-09-20T11:17:24;14.50;1.40
316;DHT22;14128;48.686;9.738;2022-09-20T11:19:56;15.10;1.40
316;DHT22;14128;48.686;9.738;2022-09-20T11:22:30;15.70;1.40
316;DHT22;14128;48.686;9.738;2022-09-20T11:25:04;15.20;1.40
316;DHT22;14128;48.686;9.738;2022-09-20T11:27:39;14.70;1.40
316;DHT22;14128;48.686;9.738;2022-09-20T11:30:15;14.70;1.40
316;DHT22;14128;48.686;9.738;2022-09-20T11:32:47;15.10;1.40
316;DHT22;14128;48.686;9.738;2022-09-20T11:35:23;15.00;1.40
316;DHT22;14128;48.686;9.738;2022-09-20T11:37:59;14.70;1.40
316;DHT22;14128;48.686;9.738;2022-09-20T11:40:32;14.70;1.40
316;DHT22;14128;48.686;9.738;2022-09-20T11:43:02;14.60;1.40
316;DHT22;14128;48.686;9.738;2022-09-20T11:45:31;14.90;1.40
316;DHT22;14128;48.686;9.738;2022-09-20T11:48:01;15.00;1.40
316;DHT22;14128;48.686;9.738;2022-09-20T11:50:51;14.50;1.40
316;DHT22;14128;48.686;9.738;2022-09-20T11:53:32;14.30;1.40
316;DHT22;14128;48.686;9.738;2022-09-20T11:56:07;13.90;1.40
316;DHT22;14128;48.686;9.738;2022-09-20T11:58:44;13.90;1.40
316;DHT22;14128;48.686;9.738;2022-09-20T12:01:15;14.40;1.40
316;DHT22;14128;48.686;9.738;2022-09-20T12:03:51;14.90;1.40
316;DHT22;14128;48.686;9.738;2022-09-20T12:06:26;15.20;1.40
316;DHT22;14128;48.686;9.738;2022-09-20T12:08:56;15.30;1.40
316;DHT22;14128;48.686;9.738;2022-09-20T12:11:29;15.20;1.40
316;DHT22;14128;48.686;9.738;2022-09-20T12:14:01;14.70;1.40
316;DHT22;14128;48.686;9.738;2022-09-20T12:16:38;14.50;1.40
316;DHT22;14128;48.686;9.738;2022-09-20T12:19:06;14.70;1.40
316;DHT22;14128;48.686;9.738;2022-09-20T12:24:35;15.80;1.40
316;DHT22;14128;48.686;9.738;2022-09-20T12:27:20;16.40;1.40
316;DHT22;14128;48.686;9.738;2022-09-20T12:29:53;16.80;1.40
316;DHT22;14128;48.686;9.738;2022-09-20T12:32:46;16.90;1.40
316;DHT22;14128;48.686;9.738;2022-09-20T12:38:30;16.70;1.40
316;DHT22;14128;48.686;9.738;2022-09-20T12:41:00;16.10;1.40
316;DHT22;14128;48.686;9.738;2022-09-20T12:43:30;16.10;1.40
316;DHT22;14128;48.686;9.738;2022-09-20T12:45:59;15.50;1.40
316;DHT22;14128;48.686;9.738;2022-09-20T12:48:28;15.10;1.40
316;DHT22;14128;48.686;9.738;2022-09-20T12:51:02;15.40;1.40
316;DHT22;14128;48.686;9.738;2022-09-20T12:54:01;15.50;1.40
316;DHT22;14128;48.686;9.738;2022-09-20T12:56:30;16.20;1.40
316;DHT22;14128;48.686;9.738;2022-09-20T12:59:02;17.20;1.40
316;DHT22;14128;48.686;9.738;2022-09-20T13:01:37;18.00;1.40
316;DHT22;14128;48.686;9.738;2022-09-20T13:10:29;18.30;1.40
316;DHT22;14128;48.686;9.738;2022-09-20T13:13:02;18.50;1.40
316;DHT22;14128;48.686;9.738;2022-09-20T13:15:31;18.70;1.40
316;DHT22;14128;48.686;9.738;2022-09-20T13:18:00;18.50;1.40
316;DHT22;14128;48.686;9.738;2022-09-20T13:20:28;17.70;1.40
316;DHT22;14128;48.686;9.738;2022-09-20T13:23:00;17.20;1.40
316;DHT22;14128;48.686;9.738;2022-09-20T13:25:29;17.00;1.40
316;DHT22;14128;48.686;9.738;2022-09-20T13:28:05;16.80;1.40
316;DHT22;14128;48.686;9.738;2022-09-20T13:30:34;16.60;1.40
316;DHT22;14128;48.686;9.738;2022-09-20T13:33:15;16.40;1.40
316;DHT22;14128;48.686;9.738;2022-09-20T13:35:43;16.20;1.40
316;DHT22;14128;48.686;9.738;2022-09-20T13:38:13;16.00;1.40
316;DHT22;14128;48.686;9.738;2022-09-20T13:40:45;16.00;1.40
316;DHT22;14128;48.686;9.738;2022-09-20T13:43:23;15.70;1.40
316;DHT22;14128;48.686;9.738;2022-09-20T13:45:55;15.50;1.40
316;DHT22;14128;48.686;9.738;2022-09-20T13:48:24;15.60;1.40
316;DHT22;14128;48.686;9.738;2022-09-20T13:50:51;16.00;1.40
316;DHT22;14128;48.686;9.738;2022-09-20T13:53:21;16.20;1.40
316;DHT22;14128;48.686;9.738;2022-09-20T13:55:48;16.60;1.40
316;DHT22;14128;48.686;9.738;2022-09-20T13:58:19;17.40;1.40
316;DHT22;14128;48.686;9.738;2022-09-20T14:00:48;18.80;1.40
316;DHT22;14128;48.686;9.738;2022-09-20T14:03:18;19.60;1.40
316;DHT22;14128;48.686;9.738;2022-09-20T14:05:46;20.60;1.40
316;DHT22;14128;48.686;9.738;2022-09-20T14:08:20;21.30;1.40
316;DHT22;14128;48.686;9.738;2022-09-20T14:10:49;22.00;1.40
316;DHT22;14128;48.686;9.738;2022-09-20T14:13:30;22.10;1.40
316;DHT22;14128;48.686;9.738;2022-09-20T14:15:58;21.70;1.40
316;DHT22;14128;48.686;9.738;2022-09-20T14:18:27;20.70;1.40
316;DHT22;14128;48.686;9.738;2022-09-20T14:20:54;19.30;1.40
316;DHT22;14128;48.686;9.738;2022-09-20T14:23:24;19.10;1.40
316;DHT22;14128;48.686;9.738;2022-09-20T14:26:20;19.60;1.40
316;DHT22;14128;48.686;9.738;2022-09-20T14:28:47;20.30;1.40
316;DHT22;14128;48.686;9.738;2022-09-20T14:31:16;20.10;1.40
316;DHT22;14128;48.686;9.738;2022-09-20T14:33:49;19.40;1.40
316;DHT22;14128;48.686;9.738;2022-09-20T14:36:19;18.80;1.40
316;DHT22;14128;48.686;9.738;2022-09-20T14:38:47;18.70;1.40
316;DHT22;14128;48.686;9.738;2022-09-20T14:41:23;18.60;1.40
316;DHT22;14128;48.686;9.738;2022-09-20T14:43:54;18.30;1.40
316;DHT22;14128;48.686;9.738;2022-09-20T14:46:28;19.50;1.40
316;DHT22;14128;48.686;9.738;2022-09-20T14:49:18;21.00;1.40
316;DHT22;14128;48.686;9.738;2022-09-20T14:51:46;22.90;1.40
316;DHT22;14128;48.686;9.738;2022-09-20T14:54:24;23.80;1.40
316;DHT22;14128;48.686;9.738;2022-09-20T14:56:53;24.10;1.40
316;DHT22;14128;48.686;9.738;2022-09-20T14:59:26;21.90;1.40
316;DHT22;14128;48.686;9.738;2022-09-20T15:02:00;20.10;1.40
316;DHT22;14128;48.686;9.738;2022-09-20T15:04:29;19.00;1.40
316;DHT22;14128;48.686;9.738;2022-09-20T15:07:00;18.00;1.40
316;DHT22;14128;48.686;9.738;2022-09-20T15:09:28;17.30;1.40
316;DHT22;14128;48.686;9.738;2022-09-20T15:11:59;16.80;1.40
316;DHT22;14128;48.686;9.738;2022-09-20T15:14:26;16.50;1.40
316;DHT22;14128;48.686;9.738;2022-09-20T15:16:54;16.20;1.40
316;DHT22;14128;48.686;9.738;2022-09-20T15:19:20;16.40;1.40
316;DHT22;14128;48.686;9.738;2022-09-20T15:21:48;16.40;1.40
316;DHT22;14128;48.686;9.738;2022-09-20T15:24:15;16.30;1.40
316;DHT22;14128;48.686;9.738;2022-09-20T15:26:43;16.00;1.40
316;DHT22;14128;48.686;9.738;2022-09-20T15:29:13;15.60;1.40
316;DHT22;14128;48.686;9.738;2022-09-20T15:31:41;15.20;1.40
316;DHT22;14128;48.686;9.738;2022-09-20T15:34:09;15.00;1.40
316;DHT22;14128;48.686;9.738;2022-09-20T15:36:37;14.80;1.40
316;DHT22;14128;48.686;9.738;2022-09-20T15:39:06;14.60;1.40
316;DHT22;14128;48.686;9.738;2022-09-20T15:41:33;14.60;1.40
316;DHT22;14128;48.686;9.738;2022-09-20T15:44:00;14.60;1.40
316;DHT22;14128;48.686;9.738;2022-09-20T15:46:28;15.10;1.40
316;DHT22;14128;48.686;9.738;2022-09-20T15:48:55;16.00;1.40
316;DHT22;14128;48.686;9.738;2022-09-20T15:51:25;15.90;1.40
316;DHT22;14128;48.686;9.738;2022-09-20T15:53:55;15.60;1.40
316;DHT22;14128;48.686;9.738;2022-09-20T15:56:25;15.20;1.40
316;DHT22;14128;48.686;9.738;2022-09-20T15:58:53;14.80;1.40
316;DHT22;14128;48.686;9.738;2022-09-20T16:01:24;14.70;1.40
316;DHT22;14128;48.686;9.738;2022-09-20T16:03:53;14.30;1.40
316;DHT22;14128;48.686;9.738;2022-09-20T16:06:21;14.20;1.40
316;DHT22;14128;48.686;9.738;2022-09-20T16:08:48;14.10;1.40
316;DHT22;14128;48.686;9.738;2022-09-20T16:11:16;14.10;1.40
316;DHT22;14128;48.686;9.738;2022-09-20T16:13:46;14.20;1.40
316;DHT22;14128;48.686;9.738;2022-09-20T16:16:13;14.30;1.40
316;DHT22;14128;48.686;9.738;2022-09-20T16:18:40;14.50;1.40
316;DHT22;14128;48.686;9.738;2022-09-20T16:21:25;14.40;1.40
316;DHT22;14128;48.686;9.738;2022-09-20T16:23:54;14.00;1.40
316;DHT22;14128;48.686;9.738;2022-09-20T16:26:23;13.50;1.40
316;DHT22;14128;48.686;9.738;2022-09-20T16:28:51;13.10;1.40
316;DHT22;14128;48.686;9.738;2022-09-20T16:31:34;13.00;1.40
316;DHT22;14128;48.686;9.738;2022-09-20T16:34:05;12.90;1.40
316;DHT22;14128;48.686;9.738;2022-09-20T16:36:33;12.90;1.40
316;DHT22;14128;48.686;9.738;2022-09-20T16:38:59;12.90;1.40
316;DHT22;14128;48.686;9.738;2022-09-20T16:41:28;12.90;1.40
316;DHT22;14128;48.686;9.738;2022-09-20T16:43:57;12.90;1.40
316;DHT22;14128;48.686;9.738;2022-09-20T16:46:25;12.80;1.40
316;DHT22;14128;48.686;9.738;2022-09-20T16:48:53;12.80;1.40
316;DHT22;14128;48.686;9.738;2022-09-20T16:51:21;12.80;1.40
316;DHT22;14128;48.686;9.738;2022-09-20T16:53:50;12.90;1.40
316;DHT22;14128;48.686;9.738;2022-09-20T16:56:19;12.80;1.40
316;DHT22;14128;48.686;9.738;2022-09-20T16:58:47;12.80;1.40
316;DHT22;14128;48.686;9.738;2022-09-20T17:01:16;12.70;1.40
316;DHT22;14128;48.686;9.738;2022-09-20T17:03:43;12.60;1.40
316;DHT22;14128;48.686;9.738;2022-09-20T17:06:10;12.50;1.40
316;DHT22;14128;48.686;9.738;2022-09-20T17:08:38;12.30;1.40
316;DHT22;14128;48.686;9.738;2022-09-20T17:11:06;12.20;1.40
316;DHT22;14128;48.686;9.738;2022-09-20T17:13:34;11.90;1.40
316;DHT22;14128;48.686;9.738;2022-09-20T17:16:02;11.60;1.40
316;DHT22;14128;48.686;9.738;2022-09-20T17:18:30;11.30;1.40
316;DHT22;14128;48.686;9.738;2022-09-20T17:21:02;11.00;1.40
316;DHT22;14128;48.686;9.738;2022-09-20T17:23:29;10.70;1.40
316;DHT22;14128;48.686;9.738;2022-09-20T17:26:02;10.50;1.40
316;DHT22;14128;48.686;9.738;2022-09-20T17:28:33;10.30;1.40
316;DHT22;14128;48.686;9.738;2022-09-20T17:31:00;10.10;1.40
316;DHT22;14128;48.686;9.738;2022-09-20T17:33:27;10.00;1.40
316;DHT22;14128;48.686;9.738;2022-09-20T17:35:55;9.80;1.40
316;DHT22;14128;48.686;9.738;2022-09-20T17:38:24;9.50;1.40
316;DHT22;14128;48.686;9.738;2022-09-20T17:40:58;9.40;1.40
316;DHT22;14128;48.686;9.738;2022-09-20T17:43:26;9.30;1.40
316;DHT22;14128;48.686;9.738;2022-09-20T17:45:54;9.10;1.40